Flight Track Log - Related Links

Times and Time Zones

All times are in EDT time to prevent confusion due to time zone crossing. See the N310VP flight status page for this flight to view local times or setup timezone preferences in your user account.

Time Position Orientation Groundspeed Altitude Reporting Facility
EDT Latitude Longitude Course Direction KTS MPH feet Rate Location/Type
Fri 17:55:37 40.0789 -83.0497 36° Northeast 114 131 1,700  Level Indianapolis Center
Fri 17:57:02 40.1181 -83.0119 36° Northeast 124 143 3,000 571 Climbing Indianapolis Center
Fri 17:58:04 40.1403 -83.0564 303° West 154 177 3,100 49 Climbing Indianapolis Center
Fri 17:59:04 40.1456 -83.1147 277° West 163 188 3,100  Level Indianapolis Center
Fri 18:00:05 40.1558 -83.1786 282° West 171 197 3,100  Level Indianapolis Center
Fri 18:01:10 40.1667 -83.2325 285° West 165 190 3,100 -47 Level Indianapolis Center
Fri 18:02:12 40.1767 -83.2925 282° West 167 192 3,000 -51 Descending Indianapolis Center
Fri 18:03:08 40.1850 -83.3569 280° West 162 186 3,000  Level Indianapolis Center
Fri 18:04:09 40.1956 -83.4156 283° West 160 184 3,000  Level Indianapolis Center
Fri 18:05:10 40.2019 -83.4708 279° West 161 185 3,000  Level Indianapolis Center
Fri 18:06:05 40.2108 -83.5239 282° West 162 186 3,000 85 Level Indianapolis Center
Fri 18:06:21 40.2119 -83.5333 279° West 161 185 3,100 98 Climbing Indianapolis Center
Fri 18:07:06 40.2108 -83.5811 268° West 159 183 3,100 -97 Level Indianapolis Center
Fri 18:07:23 40.2133 -83.5911 288° West 160 184 3,000 -98 Descending Indianapolis Center
Fri 18:08:07 40.2233 -83.6400 285° West 162 186 3,000 97 Level Indianapolis Center
Fri 18:08:25 40.2236 -83.6481 273° West 159 183 3,100 109 Climbing Indianapolis Center
Fri 18:09:02 40.2319 -83.6931 284° West 161 185 3,100 -97 Level Indianapolis Center
Fri 18:09:27 40.2372 -83.7139 288° West 160 184 3,000  Descending Indianapolis Center
Fri 18:10:09 40.2419 -83.7572 278° West 160 184 3,100 97 Climbing Indianapolis Center
Fri 18:10:29 40.2447 -83.7725 283° West 161 185 3,100 -100 Level Indianapolis Center
Fri 18:11:09 40.2481 -83.8128 276° West 160 184 3,000  Descending Indianapolis Center
Fri 18:11:31 40.2522 -83.8292 288° West 159 183 3,100 107 Climbing Indianapolis Center
Fri 18:12:05 40.2589 -83.8633 284° West 164 189 3,100  Level Indianapolis Center
Fri 18:12:33 40.2639 -83.8864 286° West 160 184 3,100  Level Indianapolis Center
Fri 18:13:05 40.2675 -83.9192 278° West 155 178 3,100 -97 Level Indianapolis Center
Fri 18:13:35 40.2711 -83.9411 282° West 156 180 3,000 -90 Descending Indianapolis Center
Fri 18:14:12 40.2794 -83.9808 285° West 146 168 3,000  Level Indianapolis Center
Fri 18:14:37 40.2825 -84.0006 281° West 153 176 3,000  Level Indianapolis Center
Fri 18:15:07 40.2864 -84.0256 282° West 141 162 3,000  Level Indianapolis Center
Fri 18:15:39 40.2906 -84.0450 286° West 147 169 3,000  Level Indianapolis Center
Fri 18:16:14 40.2822 -84.0797 253° West 144 166 3,000 97 Level Indianapolis Center
Fri 18:16:41 40.2758 -84.1008 248° West 146 168 3,100  Climbing Indianapolis Center
Fri 18:17:21 40.2581 -84.1231 224° Southwest 141 162 3,000 -97 Descending Indianapolis Center
Fri 18:17:43 40.2486 -84.1144 145° Southeast 150 173 3,000  Level Indianapolis Center
Fri 18:18:16 40.2583 -84.0903 62° Northeast 141 162 3,000 97 Level Indianapolis Center
Fri 18:18:45 40.2758 -84.0839 16° North 145 167 3,100  Climbing Indianapolis Center
Fri 18:19:17 40.2839 -84.0581 68° East 147 169 3,000 -97 Descending Indianapolis Center
Fri 18:19:47 40.2892 -84.0356 73° East 149 171 3,000 -98 Level Indianapolis Center
Fri 18:20:18 40.3003 -84.0108 59° Northeast 142 163 2,900 -194 Descending Indianapolis Center
Fri 18:20:49 40.3089 -83.9919 59° Northeast 143 165 2,800  Descending Indianapolis Center
Fri 18:21:19 40.3181 -83.9694 62° Northeast 133 153 2,900 97 Climbing Indianapolis Center
Fri 18:21:51 40.3250 -83.9517 63° Northeast 134 154 2,900  Level Indianapolis Center
Fri 18:22:26 40.3336 -83.9303 62° Northeast 104 120 2,900 -194 Level Indianapolis Center
Fri 18:22:53 40.3394 -83.9178 59° Northeast 120 138 2,700 -625 Descending Indianapolis Center
Fri 18:23:14 40.3439 -83.9044 66° East 100 115 2,400 -574 Descending Indianapolis Center
Fri 18:24:27 40.3594 -83.8653 62° Northeast 106 122 1,800 91 Descending Indianapolis Center
Fri 18:26:00 40.3350 -83.7729 109° East  Level FlightAware Approximate
Fri 18:27:39 40.3836 -83.7400 90° East 138 159 2,800  Level Indianapolis Center
Fri 18:28:12 40.3856 -83.7097 85° East 140 161 3,100 194 Climbing Indianapolis Center
Fri 18:28:41 40.3900 -83.6864 76° East 147 169 3,000  Descending Indianapolis Center
Fri 18:29:25 40.3928 -83.6422 85° East 162 186 3,100  Climbing Indianapolis Center
Fri 18:29:43 40.3908 -83.6297 102° East 153 176 3,000 -122 Descending Indianapolis Center
Fri 18:30:14 40.3789 -83.6022 120° Southeast 154 177 3,000  Level Indianapolis Center
Fri 18:30:45 40.3739 -83.5778 105° East 154 177 3,000  Level Indianapolis Center
Fri 18:31:26 40.3647 -83.5375 107° East 153 176 3,000  Level Indianapolis Center
Fri 18:31:47 40.3639 -83.5242 95° East 151 174 3,000  Level Indianapolis Center
Fri 18:32:21 40.3581 -83.4872 102° East 151 174 3,000  Level Indianapolis Center
Fri 18:32:49 40.3550 -83.4700 103° East 150 173 3,000  Level Indianapolis Center
Fri 18:33:00 40.1905 -83.3746 90° East  Level Estimated
Fri 18:33:16 40.3444 -83.4417 116° Southeast 146 168 3,000  Level Indianapolis Center
Fri 18:33:51 40.3347 -83.4217 123° Southeast 150 173 3,000  Level Indianapolis Center
Fri 18:34:23 40.3186 -83.3922 126° Southeast 152 175 3,000 97 Level Indianapolis Center
Fri 18:34:53 40.3092 -83.3664 116° Southeast 150 173 3,100  Climbing Indianapolis Center
Fri 18:35:24 40.3036 -83.3411 106° East 153 176 3,000  Descending Indianapolis Center
Fri 18:35:55 40.3011 -83.3150 97° East 146 168 3,100 -100 Climbing Indianapolis Center
Fri 18:36:24 40.2983 -83.2939 100° East 130 150 2,900 -194 Descending Indianapolis Center
Fri 18:36:57 40.2969 -83.2672 94° East 138 159 2,900  Level Indianapolis Center
Fri 18:37:25 40.2931 -83.2497 106° East 122 140 2,900 -290 Level Indianapolis Center
Fri 18:37:59 40.2928 -83.2278 91° East 125 144 2,600 -537 Descending Indianapolis Center
Fri 18:38:32 40.2897 -83.2083 102° East 96 110 2,300 -484 Descending Indianapolis Center
Fri 18:39:01 40.2883 -83.1908 96° East 111 128 2,100 -492 Descending Indianapolis Center
Fri 18:39:33 40.2839 -83.1719 107° East 102 117 1,800 -581 Descending Indianapolis Center
Fri 18:40:03 40.2833 -83.1547 92° East 105 121 1,500 -393 Descending Indianapolis Center
Fri 18:40:34 40.2800 -83.1386 105° East 102 117 1,400 -97 Descending Indianapolis Center
Fri 18:41:05 40.2792 -83.1203 93° East 104 120 1,400 367 Level Indianapolis Center
Fri 18:41:23 40.2783 -83.1003 93° East 138 159 1,700 968 Climbing Indianapolis Center
Fri 18:42:07 40.2764 -83.0706 95° East 127 146 2,400 987 Climbing Indianapolis Center
Fri 18:42:42 40.2511 -83.0697 179° South 129 148 3,000 677 Climbing Indianapolis Center
Fri 18:43:09 40.2325 -83.0681 176° South 143 165 3,100  Climbing Indianapolis Center
Fri 18:43:42 40.2111 -83.0761 196° South 151 174 3,000 -97 Descending Indianapolis Center
Fri 18:44:11 40.2000 -83.0944 232° Southwest 147 169 3,000  Level Indianapolis Center
Fri 18:44:43 40.1811 -83.1161 221° Southwest 148 170 3,000  Level Indianapolis Center
Fri 18:45:13 40.1703 -83.1331 230° Southwest 147 169 3,000  Level Indianapolis Center
Fri 18:45:38 40.1578 -83.1517 229° Southwest 145 167 3,000  Level Indianapolis Center
Fri 18:46:15 40.1444 -83.1744 233° Southwest 146 168 3,000  Level Indianapolis Center
Fri 18:46:39 40.1356 -83.1981 244° Southwest 146 168 3,000  Level Indianapolis Center
Fri 18:47:17 40.1258 -83.2208 241° Southwest 144 166 3,000  Level Indianapolis Center
Fri 18:47:40 40.1258 -83.2461 270° West 147 169 3,000  Level Indianapolis Center
Fri 18:48:19 40.1267 -83.2753 272° West 150 173 3,000  Level Indianapolis Center
Fri 18:48:41 40.1264 -83.3006 269° West 148 170 3,000  Level Indianapolis Center
Fri 18:49:21 40.1258 -83.3294 269° West 149 171 3,000 -98 Level Indianapolis Center
Fri 18:49:42 40.1267 -83.3525 273° West 145 167 2,900  Descending Indianapolis Center
Fri 18:50:23 40.1128 -83.3764 233° Southwest 149 171 3,000 100 Climbing Indianapolis Center
Fri 18:50:42 40.0983 -83.3708 164° South 135 155 3,000  Level Indianapolis Center
Fri 18:51:25 40.0767 -83.3606 160° South 140 161 3,000 90 Level Indianapolis Center
Fri 18:51:49 40.0689 -83.3428 120° Southeast 136 157 3,100 97 Climbing Indianapolis Center
Fri 18:52:27 40.0653 -83.3167 100° East 130 150 3,100  Level Indianapolis Center
Fri 18:52:50 40.0675 -83.3017 79° East 111 128 3,100  Level Indianapolis Center
Fri 18:53:29 40.0700 -83.2758 83° East 119 137 3,100  Level Indianapolis Center
Fri 18:53:45 40.0703 -83.2639 88° East 112 129 3,100 -97 Level Indianapolis Center
Fri 18:54:31 40.0722 -83.2322 85° East 119 137 3,000 -90 Descending Indianapolis Center
Fri 18:54:52 40.0717 -83.2150 92° East 118 136 3,000 -194 Level Indianapolis Center
Fri 18:55:33 40.0728 -83.1900 87° East 119 137 2,800 -689 Descending Indianapolis Center
Fri 18:55:53 40.0728 -83.1689 90° East 129 148 2,300 -871 Descending Indianapolis Center
Fri 18:56:35 40.0739 -83.1417 87° East 122 140 1,900 -689 Descending Indianapolis Center
Fri 18:56:54 40.0739 -83.1228 90° East 127 146 1,600 -581 Descending Indianapolis Center
Fri 18:57:37 40.0761 -83.0961 84° East 124 143 1,300 -419 Descending Indianapolis Center
Fri 18:59:00 40.0798 -83.0732 300° West  Level Estimated

Login

Don't have an account? Register now (free) for customized features, flight alerts, and more!